Terminal Aerodrome Forecast
Issued by NWS

Home | Current Version | Previous Version | Text Only | Print | Product List | Glossary On
Versions: 1 2 3 4 5 6 7 8 9 10 11 12 13 14 15 16 17 18 19 20 21 22 23 24 25 26 27 28
000
FTUS41 KOKX 221100
TAFTEB
TAF
KTEB 221130Z 2212/2312 01010KT 6SM -SHRA BR BKN015 BKN030
      TEMPO 2212/2214 3SM SHRA
     FM221400 01012G18KT 6SM BR VCSH BKN025 BKN040
     FM230000 35013G21KT 4SM -RA BR BKN015
     FM230600 34011G18KT 4SM -RA BR BKN010=

USA.gov is the U.S. government's official web portal to all federal, state and local government web resources and services.